sensor_id;sensor_type;location;lat;lon;timestamp;P1;durP1;ratioP1;P2;durP2;ratioP2
47784;SDS011;35233;55.686;37.848;2024-03-02T00:00:07;20.00;;;15.07;;
47784;SDS011;35233;55.686;37.848;2024-03-02T00:02:42;19.17;;;14.15;;
47784;SDS011;35233;55.686;37.848;2024-03-02T00:05:12;21.75;;;14.75;;
47784;SDS011;35233;55.686;37.848;2024-03-02T00:07:42;22.27;;;15.00;;
47784;SDS011;35233;55.686;37.848;2024-03-02T00:10:09;19.77;;;14.90;;
47784;SDS011;35233;55.686;37.848;2024-03-02T00:12:37;21.15;;;14.10;;
47784;SDS011;35233;55.686;37.848;2024-03-02T00:15:25;18.33;;;14.27;;
47784;SDS011;35233;55.686;37.848;2024-03-02T00:17:55;19.38;;;14.65;;
47784;SDS011;35233;55.686;37.848;2024-03-02T00:20:21;20.27;;;14.65;;
47784;SDS011;35233;55.686;37.848;2024-03-02T00:22:51;19.40;;;14.13;;
47784;SDS011;35233;55.686;37.848;2024-03-02T00:25:18;22.40;;;15.27;;
47784;SDS011;35233;55.686;37.848;2024-03-02T00:27:47;19.73;;;14.00;;
47784;SDS011;35233;55.686;37.848;2024-03-02T00:30:38;20.20;;;14.52;;
47784;SDS011;35233;55.686;37.848;2024-03-02T00:33:19;18.13;;;14.00;;
47784;SDS011;35233;55.686;37.848;2024-03-02T00:35:46;21.88;;;14.48;;
47784;SDS011;35233;55.686;37.848;2024-03-02T00:38:13;22.13;;;15.05;;
47784;SDS011;35233;55.686;37.848;2024-03-02T00:40:41;21.92;;;14.25;;
47784;SDS011;35233;55.686;37.848;2024-03-02T00:43:19;18.67;;;13.30;;
47784;SDS011;35233;55.686;37.848;2024-03-02T00:46:02;19.25;;;13.85;;
47784;SDS011;35233;55.686;37.848;2024-03-02T00:48:28;18.15;;;13.50;;
47784;SDS011;35233;55.686;37.848;2024-03-02T00:50:56;17.65;;;13.50;;
47784;SDS011;35233;55.686;37.848;2024-03-02T00:53:23;19.05;;;13.18;;
47784;SDS011;35233;55.686;37.848;2024-03-02T00:55:52;20.23;;;14.13;;
47784;SDS011;35233;55.686;37.848;2024-03-02T00:58:18;20.90;;;14.35;;
47784;SDS011;35233;55.686;37.848;2024-03-02T01:00:43;21.23;;;14.45;;
47784;SDS011;35233;55.686;37.848;2024-03-02T01:03:09;22.13;;;14.95;;
47784;SDS011;35233;55.686;37.848;2024-03-02T01:05:36;18.77;;;14.20;;
47784;SDS011;35233;55.686;37.848;2024-03-02T01:08:02;21.20;;;14.55;;
47784;SDS011;35233;55.686;37.848;2024-03-02T01:10:27;19.27;;;14.18;;
47784;SDS011;35233;55.686;37.848;2024-03-02T01:12:53;20.58;;;13.57;;
47784;SDS011;35233;55.686;37.848;2024-03-02T01:15:19;20.95;;;14.23;;
47784;SDS011;35233;55.686;37.848;2024-03-02T01:17:44;19.05;;;13.40;;
47784;SDS011;35233;55.686;37.848;2024-03-02T01:20:10;21.92;;;14.63;;
47784;SDS011;35233;55.686;37.848;2024-03-02T01:22:36;19.15;;;13.75;;
47784;SDS011;35233;55.686;37.848;2024-03-02T01:25:02;20.15;;;13.93;;
47784;SDS011;35233;55.686;37.848;2024-03-02T01:27:28;18.35;;;13.63;;
47784;SDS011;35233;55.686;37.848;2024-03-02T01:29:54;18.58;;;13.90;;
47784;SDS011;35233;55.686;37.848;2024-03-02T01:32:20;22.52;;;14.63;;
47784;SDS011;35233;55.686;37.848;2024-03-02T01:34:45;19.67;;;13.70;;
47784;SDS011;35233;55.686;37.848;2024-03-02T01:37:11;18.42;;;13.45;;
47784;SDS011;35233;55.686;37.848;2024-03-02T01:39:37;17.35;;;13.38;;
47784;SDS011;35233;55.686;37.848;2024-03-02T01:42:02;19.95;;;13.27;;
47784;SDS011;35233;55.686;37.848;2024-03-02T01:44:28;19.70;;;14.13;;
47784;SDS011;35233;55.686;37.848;2024-03-02T01:46:54;18.10;;;13.90;;
47784;SDS011;35233;55.686;37.848;2024-03-02T01:49:19;19.77;;;14.07;;
47784;SDS011;35233;55.686;37.848;2024-03-02T01:51:45;21.58;;;14.57;;
47784;SDS011;35233;55.686;37.848;2024-03-02T01:54:11;22.00;;;15.27;;
47784;SDS011;35233;55.686;37.848;2024-03-02T01:56:36;21.35;;;13.95;;
47784;SDS011;35233;55.686;37.848;2024-03-02T01:59:02;19.60;;;14.00;;
47784;SDS011;35233;55.686;37.848;2024-03-02T02:01:28;19.88;;;14.20;;
47784;SDS011;35233;55.686;37.848;2024-03-02T02:03:54;19.85;;;14.05;;
47784;SDS011;35233;55.686;37.848;2024-03-02T02:06:20;18.42;;;13.20;;
47784;SDS011;35233;55.686;37.848;2024-03-02T02:08:46;20.35;;;13.85;;
47784;SDS011;35233;55.686;37.848;2024-03-02T02:11:14;21.20;;;14.35;;
47784;SDS011;35233;55.686;37.848;2024-03-02T02:13:41;21.58;;;14.20;;
47784;SDS011;35233;55.686;37.848;2024-03-02T02:16:09;18.67;;;13.70;;
47784;SDS011;35233;55.686;37.848;2024-03-02T02:18:35;19.33;;;14.10;;
47784;SDS011;35233;55.686;37.848;2024-03-02T02:21:03;19.27;;;14.07;;
47784;SDS011;35233;55.686;37.848;2024-03-02T02:23:29;21.02;;;13.40;;
47784;SDS011;35233;55.686;37.848;2024-03-02T02:25:54;26.05;;;14.98;;
47784;SDS011;35233;55.686;37.848;2024-03-02T02:28:20;18.77;;;13.57;;
47784;SDS011;35233;55.686;37.848;2024-03-02T02:30:45;20.05;;;13.82;;
47784;SDS011;35233;55.686;37.848;2024-03-02T02:33:11;19.42;;;13.73;;
47784;SDS011;35233;55.686;37.848;2024-03-02T02:35:37;20.50;;;14.48;;
47784;SDS011;35233;55.686;37.848;2024-03-02T02:38:02;22.70;;;14.80;;
47784;SDS011;35233;55.686;37.848;2024-03-02T02:40:28;20.38;;;14.70;;
47784;SDS011;35233;55.686;37.848;2024-03-02T02:42:57;21.02;;;14.38;;
47784;SDS011;35233;55.686;37.848;2024-03-02T02:45:24;23.35;;;15.45;;
47784;SDS011;35233;55.686;37.848;2024-03-02T02:47:50;21.98;;;15.35;;
47784;SDS011;35233;55.686;37.848;2024-03-02T02:50:15;20.42;;;15.00;;
47784;SDS011;35233;55.686;37.848;2024-03-02T02:52:42;25.52;;;16.10;;
47784;SDS011;35233;55.686;37.848;2024-03-02T02:55:12;20.80;;;15.68;;
47784;SDS011;35233;55.686;37.848;2024-03-02T02:57:39;21.10;;;14.93;;
47784;SDS011;35233;55.686;37.848;2024-03-02T03:02:44;24.73;;;15.90;;
47784;SDS011;35233;55.686;37.848;2024-03-02T03:05:12;21.35;;;14.82;;
47784;SDS011;35233;55.686;37.848;2024-03-02T03:07:39;22.95;;;16.17;;
47784;SDS011;35233;55.686;37.848;2024-03-02T03:10:05;20.77;;;15.60;;
47784;SDS011;35233;55.686;37.848;2024-03-02T03:12:32;20.17;;;14.90;;
47784;SDS011;35233;55.686;37.848;2024-03-02T03:14:58;21.67;;;15.48;;
47784;SDS011;35233;55.686;37.848;2024-03-02T03:17:24;22.70;;;16.98;;
47784;SDS011;35233;55.686;37.848;2024-03-02T03:19:50;22.40;;;15.88;;
47784;SDS011;35233;55.686;37.848;2024-03-02T03:22:15;22.20;;;15.98;;
47784;SDS011;35233;55.686;37.848;2024-03-02T03:24:41;24.85;;;16.27;;
47784;SDS011;35233;55.686;37.848;2024-03-02T03:27:07;22.95;;;16.33;;
47784;SDS011;35233;55.686;37.848;2024-03-02T03:29:33;22.83;;;15.98;;
47784;SDS011;35233;55.686;37.848;2024-03-02T03:31:58;24.35;;;16.63;;
47784;SDS011;35233;55.686;37.848;2024-03-02T03:34:24;23.48;;;16.17;;
47784;SDS011;35233;55.686;37.848;2024-03-02T03:36:49;21.08;;;15.80;;
47784;SDS011;35233;55.686;37.848;2024-03-02T03:39:15;22.55;;;15.90;;
47784;SDS011;35233;55.686;37.848;2024-03-02T03:41:40;24.63;;;17.05;;
47784;SDS011;35233;55.686;37.848;2024-03-02T03:44:06;24.15;;;17.25;;
47784;SDS011;35233;55.686;37.848;2024-03-02T03:46:32;24.15;;;16.92;;
47784;SDS011;35233;55.686;37.848;2024-03-02T03:48:57;24.00;;;16.35;;
47784;SDS011;35233;55.686;37.848;2024-03-02T03:51:23;27.48;;;18.02;;
47784;SDS011;35233;55.686;37.848;2024-03-02T03:53:49;25.80;;;18.05;;
47784;SDS011;35233;55.686;37.848;2024-03-02T03:56:14;26.02;;;17.65;;
47784;SDS011;35233;55.686;37.848;2024-03-02T03:58:40;21.55;;;15.52;;
47784;SDS011;35233;55.686;37.848;2024-03-02T04:01:06;22.85;;;16.20;;
47784;SDS011;35233;55.686;37.848;2024-03-02T04:03:31;23.38;;;16.48;;
47784;SDS011;35233;55.686;37.848;2024-03-02T04:05:57;24.33;;;17.52;;
47784;SDS011;35233;55.686;37.848;2024-03-02T04:08:22;26.33;;;16.90;;
47784;SDS011;35233;55.686;37.848;2024-03-02T04:10:48;24.92;;;17.17;;
47784;SDS011;35233;55.686;37.848;2024-03-02T04:13:14;24.05;;;16.23;;
47784;SDS011;35233;55.686;37.848;2024-03-02T04:15:39;23.95;;;16.98;;
47784;SDS011;35233;55.686;37.848;2024-03-02T04:18:05;26.25;;;17.30;;
47784;SDS011;35233;55.686;37.848;2024-03-02T04:20:32;22.63;;;16.60;;
47784;SDS011;35233;55.686;37.848;2024-03-02T04:22:57;24.60;;;17.30;;
47784;SDS011;35233;55.686;37.848;2024-03-02T04:25:23;22.98;;;16.38;;
47784;SDS011;35233;55.686;37.848;2024-03-02T04:27:48;24.70;;;17.20;;
47784;SDS011;35233;55.686;37.848;2024-03-02T04:30:14;25.70;;;16.27;;
47784;SDS011;35233;55.686;37.848;2024-03-02T04:32:40;25.83;;;17.00;;
47784;SDS011;35233;55.686;37.848;2024-03-02T04:35:05;22.40;;;15.98;;
47784;SDS011;35233;55.686;37.848;2024-03-02T04:37:34;24.48;;;16.52;;
47784;SDS011;35233;55.686;37.848;2024-03-02T04:39:59;25.40;;;16.42;;
47784;SDS011;35233;55.686;37.848;2024-03-02T04:42:25;25.90;;;16.55;;
47784;SDS011;35233;55.686;37.848;2024-03-02T04:44:51;22.90;;;16.75;;
47784;SDS011;35233;55.686;37.848;2024-03-02T04:47:16;24.05;;;16.48;;
47784;SDS011;35233;55.686;37.848;2024-03-02T04:49:42;23.58;;;16.83;;
47784;SDS011;35233;55.686;37.848;2024-03-02T04:52:08;26.02;;;16.88;;
47784;SDS011;35233;55.686;37.848;2024-03-02T04:54:34;23.33;;;17.17;;
47784;SDS011;35233;55.686;37.848;2024-03-02T04:57:19;25.42;;;17.80;;
47784;SDS011;35233;55.686;37.848;2024-03-02T04:59:45;23.45;;;18.15;;
47784;SDS011;35233;55.686;37.848;2024-03-02T05:02:11;29.75;;;19.98;;
47784;SDS011;35233;55.686;37.848;2024-03-02T05:04:39;28.67;;;20.52;;
47784;SDS011;35233;55.686;37.848;2024-03-02T05:07:05;28.98;;;20.50;;
47784;SDS011;35233;55.686;37.848;2024-03-02T05:09:30;27.63;;;20.92;;
47784;SDS011;35233;55.686;37.848;2024-03-02T05:11:56;28.80;;;22.05;;
47784;SDS011;35233;55.686;37.848;2024-03-02T05:14:40;32.58;;;23.67;;
47784;SDS011;35233;55.686;37.848;2024-03-02T05:17:06;29.88;;;22.55;;
47784;SDS011;35233;55.686;37.848;2024-03-02T05:19:31;33.05;;;23.83;;
47784;SDS011;35233;55.686;37.848;2024-03-02T05:21:57;30.70;;;23.58;;
47784;SDS011;35233;55.686;37.848;2024-03-02T05:24:23;31.25;;;23.75;;
47784;SDS011;35233;55.686;37.848;2024-03-02T05:26:48;34.38;;;24.48;;
47784;SDS011;35233;55.686;37.848;2024-03-02T05:29:14;28.42;;;22.45;;
47784;SDS011;35233;55.686;37.848;2024-03-02T05:31:40;31.80;;;24.10;;
47784;SDS011;35233;55.686;37.848;2024-03-02T05:34:05;32.20;;;23.25;;
47784;SDS011;35233;55.686;37.848;2024-03-02T05:36:31;30.45;;;22.80;;
47784;SDS011;35233;55.686;37.848;2024-03-02T05:38:57;29.33;;;22.67;;
47784;SDS011;35233;55.686;37.848;2024-03-02T05:41:22;34.65;;;22.35;;
47784;SDS011;35233;55.686;37.848;2024-03-02T05:43:48;30.88;;;23.30;;
47784;SDS011;35233;55.686;37.848;2024-03-02T05:46:14;30.73;;;21.48;;
47784;SDS011;35233;55.686;37.848;2024-03-02T05:48:40;29.10;;;21.98;;
47784;SDS011;35233;55.686;37.848;2024-03-02T05:51:06;29.90;;;21.55;;
47784;SDS011;35233;55.686;37.848;2024-03-02T05:53:31;30.35;;;21.80;;
47784;SDS011;35233;55.686;37.848;2024-03-02T05:55:57;31.10;;;22.23;;
47784;SDS011;35233;55.686;37.848;2024-03-02T05:58:23;31.58;;;21.55;;
47784;SDS011;35233;55.686;37.848;2024-03-02T06:01:14;30.27;;;20.80;;
47784;SDS011;35233;55.686;37.848;2024-03-02T06:03:40;29.40;;;21.70;;
47784;SDS011;35233;55.686;37.848;2024-03-02T06:06:06;29.85;;;21.42;;
47784;SDS011;35233;55.686;37.848;2024-03-02T06:08:31;30.30;;;22.35;;
47784;SDS011;35233;55.686;37.848;2024-03-02T06:10:57;29.50;;;21.90;;
47784;SDS011;35233;55.686;37.848;2024-03-02T06:13:23;30.45;;;21.95;;
47784;SDS011;35233;55.686;37.848;2024-03-02T06:15:50;32.80;;;22.85;;
47784;SDS011;35233;55.686;37.848;2024-03-02T06:18:16;27.35;;;21.25;;
47784;SDS011;35233;55.686;37.848;2024-03-02T06:20:41;30.52;;;21.40;;
47784;SDS011;35233;55.686;37.848;2024-03-02T06:23:07;31.95;;;21.15;;
47784;SDS011;35233;55.686;37.848;2024-03-02T06:25:33;29.98;;;20.88;;
47784;SDS011;35233;55.686;37.848;2024-03-02T06:27:59;29.02;;;20.75;;
47784;SDS011;35233;55.686;37.848;2024-03-02T06:30:24;25.27;;;19.85;;
47784;SDS011;35233;55.686;37.848;2024-03-02T06:32:50;27.00;;;20.15;;
47784;SDS011;35233;55.686;37.848;2024-03-02T06:35:15;26.73;;;19.90;;
47784;SDS011;35233;55.686;37.848;2024-03-02T06:37:41;28.52;;;20.20;;
47784;SDS011;35233;55.686;37.848;2024-03-02T06:40:07;26.58;;;19.70;;
47784;SDS011;35233;55.686;37.848;2024-03-02T06:42:33;29.55;;;19.27;;
47784;SDS011;35233;55.686;37.848;2024-03-02T06:44:59;25.02;;;18.83;;
47784;SDS011;35233;55.686;37.848;2024-03-02T06:47:25;27.67;;;19.15;;
47784;SDS011;35233;55.686;37.848;2024-03-02T06:49:51;26.00;;;18.90;;
47784;SDS011;35233;55.686;37.848;2024-03-02T06:52:16;24.92;;;19.27;;
47784;SDS011;35233;55.686;37.848;2024-03-02T06:54:42;28.80;;;19.92;;
47784;SDS011;35233;55.686;37.848;2024-03-02T06:57:08;23.70;;;17.15;;
47784;SDS011;35233;55.686;37.848;2024-03-02T06:59:33;27.45;;;18.98;;
47784;SDS011;35233;55.686;37.848;2024-03-02T07:01:59;23.75;;;17.90;;
47784;SDS011;35233;55.686;37.848;2024-03-02T07:04:24;24.80;;;18.35;;
47784;SDS011;35233;55.686;37.848;2024-03-02T07:06:50;27.00;;;18.60;;
47784;SDS011;35233;55.686;37.848;2024-03-02T07:09:16;27.40;;;17.88;;
47784;SDS011;35233;55.686;37.848;2024-03-02T07:11:42;26.88;;;18.30;;
47784;SDS011;35233;55.686;37.848;2024-03-02T07:14:08;25.42;;;18.23;;
47784;SDS011;35233;55.686;37.848;2024-03-02T07:16:33;25.65;;;17.08;;
47784;SDS011;35233;55.686;37.848;2024-03-02T07:19:03;25.35;;;18.08;;
47784;SDS011;35233;55.686;37.848;2024-03-02T07:21:28;27.58;;;18.02;;
47784;SDS011;35233;55.686;37.848;2024-03-02T07:23:54;26.92;;;17.88;;
47784;SDS011;35233;55.686;37.848;2024-03-02T07:26:20;23.67;;;17.08;;
47784;SDS011;35233;55.686;37.848;2024-03-02T07:28:46;24.35;;;17.95;;
47784;SDS011;35233;55.686;37.848;2024-03-02T07:31:13;24.45;;;17.48;;
47784;SDS011;35233;55.686;37.848;2024-03-02T07:33:38;23.85;;;16.58;;
47784;SDS011;35233;55.686;37.848;2024-03-02T07:36:04;25.42;;;17.75;;
47784;SDS011;35233;55.686;37.848;2024-03-02T07:38:30;24.30;;;17.73;;
47784;SDS011;35233;55.686;37.848;2024-03-02T07:40:57;25.65;;;18.00;;
47784;SDS011;35233;55.686;37.848;2024-03-02T07:43:23;26.23;;;17.95;;
47784;SDS011;35233;55.686;37.848;2024-03-02T07:45:48;25.55;;;17.63;;
47784;SDS011;35233;55.686;37.848;2024-03-02T07:48:14;24.85;;;17.65;;
47784;SDS011;35233;55.686;37.848;2024-03-02T07:50:40;23.33;;;16.88;;
47784;SDS011;35233;55.686;37.848;2024-03-02T07:53:06;25.05;;;18.02;;
47784;SDS011;35233;55.686;37.848;2024-03-02T07:55:33;25.85;;;17.95;;
47784;SDS011;35233;55.686;37.848;2024-03-02T07:58:00;24.80;;;17.35;;
47784;SDS011;35233;55.686;37.848;2024-03-02T08:00:26;25.00;;;17.27;;
47784;SDS011;35233;55.686;37.848;2024-03-02T08:02:52;24.83;;;16.88;;
47784;SDS011;35233;55.686;37.848;2024-03-02T08:05:18;27.00;;;17.80;;
47784;SDS011;35233;55.686;37.848;2024-03-02T08:07:45;25.40;;;17.30;;
47784;SDS011;35233;55.686;37.848;2024-03-02T08:10:12;22.60;;;16.98;;
47784;SDS011;35233;55.686;37.848;2024-03-02T08:12:38;25.38;;;17.83;;
47784;SDS011;35233;55.686;37.848;2024-03-02T08:15:04;25.45;;;17.85;;
47784;SDS011;35233;55.686;37.848;2024-03-02T08:17:30;23.48;;;16.90;;
47784;SDS011;35233;55.686;37.848;2024-03-02T08:19:56;26.60;;;18.15;;
47784;SDS011;35233;55.686;37.848;2024-03-02T08:22:23;24.45;;;16.80;;
47784;SDS011;35233;55.686;37.848;2024-03-02T08:24:50;23.63;;;17.17;;
47784;SDS011;35233;55.686;37.848;2024-03-02T08:27:17;25.35;;;17.90;;
47784;SDS011;35233;55.686;37.848;2024-03-02T08:29:43;24.75;;;17.52;;
47784;SDS011;35233;55.686;37.848;2024-03-02T08:32:08;23.10;;;16.95;;
47784;SDS011;35233;55.686;37.848;2024-03-02T08:34:34;23.65;;;17.33;;
47784;SDS011;35233;55.686;37.848;2024-03-02T08:37:04;21.23;;;16.73;;
47784;SDS011;35233;55.686;37.848;2024-03-02T08:39:30;25.20;;;17.83;;
47784;SDS011;35233;55.686;37.848;2024-03-02T08:41:55;26.95;;;15.95;;
47784;SDS011;35233;55.686;37.848;2024-03-02T08:44:21;25.88;;;17.15;;
47784;SDS011;35233;55.686;37.848;2024-03-02T08:46:47;23.30;;;16.73;;
47784;SDS011;35233;55.686;37.848;2024-03-02T08:49:13;21.25;;;15.98;;
47784;SDS011;35233;55.686;37.848;2024-03-02T08:51:38;22.13;;;16.58;;
47784;SDS011;35233;55.686;37.848;2024-03-02T08:54:04;20.95;;;15.88;;
47784;SDS011;35233;55.686;37.848;2024-03-02T08:59:15;21.60;;;15.05;;
47784;SDS011;35233;55.686;37.848;2024-03-02T09:01:41;22.52;;;16.50;;
47784;SDS011;35233;55.686;37.848;2024-03-02T09:04:07;20.63;;;15.65;;
47784;SDS011;35233;55.686;37.848;2024-03-02T09:06:35;20.02;;;15.00;;
47784;SDS011;35233;55.686;37.848;2024-03-02T09:09:01;23.08;;;15.45;;
47784;SDS011;35233;55.686;37.848;2024-03-02T09:11:27;21.15;;;15.07;;
47784;SDS011;35233;55.686;37.848;2024-03-02T09:13:53;22.30;;;15.85;;
47784;SDS011;35233;55.686;37.848;2024-03-02T09:16:21;18.33;;;12.60;;
47784;SDS011;35233;55.686;37.848;2024-03-02T09:18:46;19.73;;;12.93;;
47784;SDS011;35233;55.686;37.848;2024-03-02T09:21:12;21.10;;;13.02;;
47784;SDS011;35233;55.686;37.848;2024-03-02T09:23:37;18.80;;;13.25;;
47784;SDS011;35233;55.686;37.848;2024-03-02T09:26:05;25.20;;;13.07;;
47784;SDS011;35233;55.686;37.848;2024-03-02T09:28:31;19.88;;;13.23;;
47784;SDS011;35233;55.686;37.848;2024-03-02T09:30:56;17.08;;;12.35;;
47784;SDS011;35233;55.686;37.848;2024-03-02T09:33:22;17.92;;;12.70;;
47784;SDS011;35233;55.686;37.848;2024-03-02T09:35:48;17.13;;;11.70;;
47784;SDS011;35233;55.686;37.848;2024-03-02T09:38:14;16.50;;;11.73;;
47784;SDS011;35233;55.686;37.848;2024-03-02T09:40:41;17.23;;;13.10;;
47784;SDS011;35233;55.686;37.848;2024-03-02T09:43:07;15.85;;;11.27;;
47784;SDS011;35233;55.686;37.848;2024-03-02T09:45:33;17.92;;;11.63;;
47784;SDS011;35233;55.686;37.848;2024-03-02T09:47:59;17.02;;;11.63;;
47784;SDS011;35233;55.686;37.848;2024-03-02T09:50:25;18.02;;;11.25;;
47784;SDS011;35233;55.686;37.848;2024-03-02T09:52:51;15.32;;;11.32;;
47784;SDS011;35233;55.686;37.848;2024-03-02T09:55:20;14.82;;;11.45;;
47784;SDS011;35233;55.686;37.848;2024-03-02T09:57:46;15.98;;;10.63;;
47784;SDS011;35233;55.686;37.848;2024-03-02T10:00:15;15.85;;;11.70;;
47784;SDS011;35233;55.686;37.848;2024-03-02T10:02:41;13.82;;;10.02;;
47784;SDS011;35233;55.686;37.848;2024-03-02T10:05:10;13.30;;;10.15;;
47784;SDS011;35233;55.686;37.848;2024-03-02T10:07:37;14.85;;;10.20;;
47784;SDS011;35233;55.686;37.848;2024-03-02T10:10:13;15.13;;;9.70;;
47784;SDS011;35233;55.686;37.848;2024-03-02T10:12:40;22.02;;;9.80;;
47784;SDS011;35233;55.686;37.848;2024-03-02T10:15:05;14.18;;;9.45;;
47784;SDS011;35233;55.686;37.848;2024-03-02T10:17:32;13.27;;;10.07;;
47784;SDS011;35233;55.686;37.848;2024-03-02T10:19:58;13.10;;;9.95;;
47784;SDS011;35233;55.686;37.848;2024-03-02T10:22:24;12.75;;;9.80;;
47784;SDS011;35233;55.686;37.848;2024-03-02T10:24:49;13.32;;;9.63;;
47784;SDS011;35233;55.686;37.848;2024-03-02T10:27:22;13.32;;;9.73;;
47784;SDS011;35233;55.686;37.848;2024-03-02T10:29:49;14.05;;;9.63;;
47784;SDS011;35233;55.686;37.848;2024-03-02T10:32:15;12.13;;;9.38;;
47784;SDS011;35233;55.686;37.848;2024-03-02T10:34:42;12.13;;;8.75;;
47784;SDS011;35233;55.686;37.848;2024-03-02T10:37:12;11.77;;;8.40;;
47784;SDS011;35233;55.686;37.848;2024-03-02T10:39:39;13.15;;;9.32;;
47784;SDS011;35233;55.686;37.848;2024-03-02T10:42:08;13.38;;;9.55;;
47784;SDS011;35233;55.686;37.848;2024-03-02T10:44:34;13.82;;;8.98;;
47784;SDS011;35233;55.686;37.848;2024-03-02T10:47:01;12.27;;;8.52;;
47784;SDS011;35233;55.686;37.848;2024-03-02T10:49:29;10.85;;;8.18;;
47784;SDS011;35233;55.686;37.848;2024-03-02T10:51:57;13.45;;;8.65;;
47784;SDS011;35233;55.686;37.848;2024-03-02T10:54:23;11.38;;;9.05;;
47784;SDS011;35233;55.686;37.848;2024-03-02T10:56:52;12.65;;;8.73;;
47784;SDS011;35233;55.686;37.848;2024-03-02T10:59:29;12.00;;;9.05;;
47784;SDS011;35233;55.686;37.848;2024-03-02T11:01:59;11.75;;;9.50;;
47784;SDS011;35233;55.686;37.848;2024-03-02T11:04:27;10.77;;;8.68;;
47784;SDS011;35233;55.686;37.848;2024-03-02T11:07:06;11.68;;;9.00;;
47784;SDS011;35233;55.686;37.848;2024-03-02T11:09:35;12.73;;;9.00;;
47784;SDS011;35233;55.686;37.848;2024-03-02T11:12:16;12.77;;;8.82;;
47784;SDS011;35233;55.686;37.848;2024-03-02T11:17:17;12.77;;;8.77;;
47784;SDS011;35233;55.686;37.848;2024-03-02T11:19:43;10.27;;;7.72;;
47784;SDS011;35233;55.686;37.848;2024-03-02T11:22:11;12.50;;;8.02;;
47784;SDS011;35233;55.686;37.848;2024-03-02T11:24:37;11.80;;;7.93;;
47784;SDS011;35233;55.686;37.848;2024-03-02T11:27:03;11.70;;;8.15;;
47784;SDS011;35233;55.686;37.848;2024-03-02T11:32:16;11.10;;;8.25;;
47784;SDS011;35233;55.686;37.848;2024-03-02T11:34:46;11.60;;;8.43;;
47784;SDS011;35233;55.686;37.848;2024-03-02T11:37:14;13.35;;;8.90;;
47784;SDS011;35233;55.686;37.848;2024-03-02T11:39:42;11.88;;;8.57;;
47784;SDS011;35233;55.686;37.848;2024-03-02T11:42:09;11.35;;;8.20;;
47784;SDS011;35233;55.686;37.848;2024-03-02T11:44:37;11.45;;;8.77;;
47784;SDS011;35233;55.686;37.848;2024-03-02T11:47:07;12.27;;;8.68;;
47784;SDS011;35233;55.686;37.848;2024-03-02T11:49:37;11.52;;;7.75;;
47784;SDS011;35233;55.686;37.848;2024-03-02T11:52:05;11.15;;;8.30;;
47784;SDS011;35233;55.686;37.848;2024-03-02T11:54:35;10.82;;;8.00;;
47784;SDS011;35233;55.686;37.848;2024-03-02T11:57:08;12.35;;;8.45;;
47784;SDS011;35233;55.686;37.848;2024-03-02T11:59:33;12.27;;;8.30;;
47784;SDS011;35233;55.686;37.848;2024-03-02T12:01:59;11.40;;;8.18;;
47784;SDS011;35233;55.686;37.848;2024-03-02T12:04:26;12.00;;;8.02;;
47784;SDS011;35233;55.686;37.848;2024-03-02T12:06:55;11.25;;;7.88;;
47784;SDS011;35233;55.686;37.848;2024-03-02T12:09:21;10.85;;;7.78;;
47784;SDS011;35233;55.686;37.848;2024-03-02T12:11:47;11.10;;;7.75;;
47784;SDS011;35233;55.686;37.848;2024-03-02T12:14:13;9.75;;;7.65;;
47784;SDS011;35233;55.686;37.848;2024-03-02T12:16:44;10.93;;;7.50;;
47784;SDS011;35233;55.686;37.848;2024-03-02T12:19:09;11.15;;;8.15;;
47784;SDS011;35233;55.686;37.848;2024-03-02T12:21:35;11.60;;;8.43;;
47784;SDS011;35233;55.686;37.848;2024-03-02T12:24:02;11.20;;;8.13;;
47784;SDS011;35233;55.686;37.848;2024-03-02T12:26:28;9.75;;;7.85;;
47784;SDS011;35233;55.686;37.848;2024-03-02T12:28:54;11.95;;;7.40;;
47784;SDS011;35233;55.686;37.848;2024-03-02T12:31:20;9.68;;;7.57;;
47784;SDS011;35233;55.686;37.848;2024-03-02T12:33:46;11.38;;;8.30;;
47784;SDS011;35233;55.686;37.848;2024-03-02T12:36:13;11.60;;;8.05;;
47784;SDS011;35233;55.686;37.848;2024-03-02T12:38:43;9.57;;;7.68;;
47784;SDS011;35233;55.686;37.848;2024-03-02T12:41:09;10.80;;;8.20;;
47784;SDS011;35233;55.686;37.848;2024-03-02T12:43:35;10.95;;;7.72;;
47784;SDS011;35233;55.686;37.848;2024-03-02T12:46:00;10.32;;;8.07;;
47784;SDS011;35233;55.686;37.848;2024-03-02T12:48:26;9.35;;;7.00;;
47784;SDS011;35233;55.686;37.848;2024-03-02T12:50:52;10.52;;;7.82;;
47784;SDS011;35233;55.686;37.848;2024-03-02T12:53:18;9.75;;;7.10;;
47784;SDS011;35233;55.686;37.848;2024-03-02T12:55:43;9.43;;;7.25;;
47784;SDS011;35233;55.686;37.848;2024-03-02T12:58:16;9.77;;;7.43;;
47784;SDS011;35233;55.686;37.848;2024-03-02T13:00:44;9.85;;;8.05;;
47784;SDS011;35233;55.686;37.848;2024-03-02T13:03:11;11.45;;;7.80;;
47784;SDS011;35233;55.686;37.848;2024-03-02T13:05:37;10.38;;;7.18;;
47784;SDS011;35233;55.686;37.848;2024-03-02T13:08:02;9.95;;;7.10;;
47784;SDS011;35233;55.686;37.848;2024-03-02T13:10:32;11.80;;;7.78;;
47784;SDS011;35233;55.686;37.848;2024-03-02T13:12:58;12.40;;;8.18;;
47784;SDS011;35233;55.686;37.848;2024-03-02T13:15:27;10.32;;;7.43;;
47784;SDS011;35233;55.686;37.848;2024-03-02T13:17:52;9.77;;;7.30;;
47784;SDS011;35233;55.686;37.848;2024-03-02T13:20:18;9.05;;;7.10;;
47784;SDS011;35233;55.686;37.848;2024-03-02T13:22:45;9.43;;;7.13;;
47784;SDS011;35233;55.686;37.848;2024-03-02T13:25:10;9.23;;;6.85;;
47784;SDS011;35233;55.686;37.848;2024-03-02T13:27:36;8.98;;;6.85;;
47784;SDS011;35233;55.686;37.848;2024-03-02T13:30:02;9.63;;;6.72;;
47784;SDS011;35233;55.686;37.848;2024-03-02T13:32:34;8.55;;;6.82;;
47784;SDS011;35233;55.686;37.848;2024-03-02T13:34:59;9.95;;;6.28;;
47784;SDS011;35233;55.686;37.848;2024-03-02T13:37:25;9.95;;;7.07;;
47784;SDS011;35233;55.686;37.848;2024-03-02T13:39:51;10.85;;;6.70;;
47784;SDS011;35233;55.686;37.848;2024-03-02T13:42:16;8.73;;;6.35;;
47784;SDS011;35233;55.686;37.848;2024-03-02T13:44:45;13.02;;;7.43;;
47784;SDS011;35233;55.686;37.848;2024-03-02T13:47:13;10.25;;;7.07;;
47784;SDS011;35233;55.686;37.848;2024-03-02T13:49:39;10.50;;;7.40;;
47784;SDS011;35233;55.686;37.848;2024-03-02T13:52:08;9.35;;;6.57;;
47784;SDS011;35233;55.686;37.848;2024-03-02T13:54:45;9.55;;;6.93;;
47784;SDS011;35233;55.686;37.848;2024-03-02T13:57:13;11.18;;;7.45;;
47784;SDS011;35233;55.686;37.848;2024-03-02T13:59:49;9.82;;;6.80;;
47784;SDS011;35233;55.686;37.848;2024-03-02T14:02:17;10.43;;;7.13;;
47784;SDS011;35233;55.686;37.848;2024-03-02T14:04:43;10.15;;;6.93;;
47784;SDS011;35233;55.686;37.848;2024-03-02T14:07:09;9.38;;;6.80;;
47784;SDS011;35233;55.686;37.848;2024-03-02T14:09:38;9.23;;;6.95;;
47784;SDS011;35233;55.686;37.848;2024-03-02T14:12:04;8.73;;;6.40;;
47784;SDS011;35233;55.686;37.848;2024-03-02T14:14:30;9.80;;;7.43;;
47784;SDS011;35233;55.686;37.848;2024-03-02T14:16:56;9.30;;;6.82;;
47784;SDS011;35233;55.686;37.848;2024-03-02T14:19:25;9.82;;;7.00;;
47784;SDS011;35233;55.686;37.848;2024-03-02T14:21:56;10.23;;;6.45;;